Time;durP1;ratioP1;P1;durP2;ratioP2;P2;SDS_P1;SDS_P2;PMS_P1;PMS_P2;Temp;Humidity;BMP_temperature;BMP_pressure;BME280_temperature;BME280_humidity;BME280_pressure;Samples;Min_cycle;Max_cycle;Signal;HPM_P1;HPM_P2
2021/12/10 00:01:06;;;;;;;267.50;115.80;;;;;;;-0.82;77.61;95802.90;1781248;79;25217;-81
2021/12/10 00:03:41;;;;;;;266.08;117.42;;;;;;;-0.82;77.69;95805.55;1781052;79;26358;-81
2021/12/10 00:06:13;;;;;;;253.75;112.77;;;;;;;-0.81;77.73;95812.49;1780645;79;26006;-81
2021/12/10 00:08:44;;;;;;;249.65;106.45;;;;;;;-0.78;77.81;95818.77;1778173;79;28283;-81
2021/12/10 00:11:19;;;;;;;251.85;107.20;;;;;;;-0.77;77.83;95813.29;1778267;79;25735;-81
2021/12/10 00:13:47;;;;;;;248.57;110.12;;;;;;;-0.75;77.86;95803.84;1778373;80;25694;-81
2021/12/10 00:16:17;;;;;;;233.07;99.97;;;;;;;-0.77;77.86;95802.69;1778154;79;25678;-81
2021/12/10 00:18:51;;;;;;;238.43;104.10;;;;;;;-0.79;77.85;95805.20;1778276;79;25731;-81
2021/12/10 00:21:12;;;;;;;235.80;108.15;;;;;;;-0.79;77.92;95798.07;1777503;79;27332;-81
2021/12/10 00:23:39;;;;;;;250.70;107.87;;;;;;;-0.76;77.99;95791.59;1778264;79;25754;-81
2021/12/10 00:26:07;;;;;;;247.65;111.60;;;;;;;-0.76;78.00;95783.14;1778338;79;25663;-81
2021/12/10 00:28:39;;;;;;;242.18;113.35;;;;;;;-0.75;77.99;95772.05;1778208;79;26320;-81
2021/12/10 00:31:42;;;;;;;193.35;82.37;;;;;;;-0.75;77.98;95766.75;1778436;79;25643;-81
2021/12/10 00:34:24;;;;;;;261.52;116.80;;;;;;;-0.77;77.95;95783.33;1776711;79;27444;-81
2021/12/10 00:36:55;;;;;;;255.10;116.73;;;;;;;-0.80;78.00;95799.57;1778487;79;25735;-80
2021/12/10 00:39:33;;;;;;;248.20;111.77;;;;;;;-0.79;78.08;95787.97;1778501;80;25694;-81
2021/12/10 00:42:03;;;;;;;267.80;118.00;;;;;;;-0.75;78.09;95790.59;1778287;79;25662;-81
2021/12/10 00:44:29;;;;;;;251.50;111.68;;;;;;;-0.72;78.10;95784.91;1778104;79;25722;-81
2021/12/10 00:46:56;;;;;;;274.02;119.53;;;;;;;-0.70;78.09;95782.91;1778188;79;27369;-81
2021/12/10 00:49:23;;;;;;;269.07;124.27;;;;;;;-0.68;78.07;95786.20;1778228;79;25794;-81
2021/12/10 00:51:51;;;;;;;269.30;120.33;;;;;;;-0.67;78.05;95777.75;1778359;80;25707;-81
2021/12/10 00:54:18;;;;;;;260.93;118.57;;;;;;;-0.65;78.08;95776.58;1778241;80;25785;-80
2021/12/10 00:56:45;;;;;;;253.30;114.72;;;;;;;-0.65;78.05;95777.91;1778287;79;25719;-81
2021/12/10 00:59:14;;;;;;;232.87;107.92;;;;;;;-0.66;78.00;95781.55;1778228;80;27345;-81
2021/12/10 01:01:42;;;;;;;245.30;109.97;;;;;;;-0.67;77.96;95778.58;1778116;80;25805;-81
2021/12/10 01:04:23;;;;;;;242.35;110.90;;;;;;;-0.66;77.95;95782.88;1778258;79;25670;-81
2021/12/10 01:06:52;;;;;;;236.00;105.65;;;;;;;-0.63;78.01;95780.38;1724088;82;26169;-81
2021/12/10 01:09:23;;;;;;;230.37;105.22;;;;;;;-0.61;78.00;95788.47;1723828;81;25730;-81
2021/12/10 01:11:55;;;;;;;175.82;77.03;;;;;;;-0.63;77.95;95793.13;1724284;83;28379;-81
2021/12/10 01:14:37;;;;;;;217.57;103.70;;;;;;;-0.64;77.99;95791.47;1724136;81;26137;-81
2021/12/10 01:25:35;;;;;;;210.63;97.95;;;;;;;-0.57;77.95;95789.73;1723972;81;27370;-81
2021/12/10 01:27:54;;;;;;;225.30;106.03;;;;;;;-0.56;77.97;95782.10;1722717;81;25751;-80
2021/12/10 01:30:26;;;;;;;239.15;103.47;;;;;;;-0.56;77.99;95779.45;1724304;81;25786;-80
2021/12/10 01:33:04;;;;;;;250.22;112.97;;;;;;;-0.56;77.99;95775.48;1724370;81;26448;-80
2021/12/10 01:35:36;;;;;;;240.35;106.92;;;;;;;-0.54;78.02;95774.80;1723187;81;25695;-81
2021/12/10 01:38:05;;;;;;;224.50;104.40;;;;;;;-0.54;78.01;95781.42;1724328;81;30803;-81
2021/12/10 01:40:36;;;;;;;231.20;101.90;;;;;;;-0.55;77.98;95790.88;1724161;81;25514;-80
2021/12/10 01:43:07;;;;;;;222.95;101.40;;;;;;;-0.54;78.01;95790.70;1728007;80;25794;-80
2021/12/10 01:45:46;;;;;;;221.50;102.05;;;;;;;-0.53;78.04;95791.02;1789201;78;26301;-80
2021/12/10 01:48:16;;;;;;;217.03;101.90;;;;;;;-0.54;78.01;95784.08;1788057;79;25699;-81
2021/12/10 01:50:43;;;;;;;218.78;96.40;;;;;;;-0.54;78.05;95782.75;1788538;78;27369;-81
2021/12/10 01:53:13;;;;;;;207.40;96.75;;;;;;;-0.53;78.07;95791.02;1789116;78;25750;-82
2021/12/10 01:55:44;;;;;;;202.75;94.95;;;;;;;-0.51;78.07;95791.67;1789205;80;25663;-82
2021/12/10 01:58:15;;;;;;;208.07;94.07;;;;;;;-0.52;78.04;95788.70;1789149;78;25747;-82
2021/12/10 02:00:47;;;;;;;199.17;95.30;;;;;;;-0.56;78.09;95790.05;1789194;78;25869;-82
2021/12/10 02:03:14;;;;;;;206.60;96.97;;;;;;;-0.56;78.20;95778.13;1789237;78;27352;-82
2021/12/10 02:05:40;;;;;;;209.90;94.07;;;;;;;-0.53;78.25;95771.64;1789160;78;25729;-82
2021/12/10 02:08:08;;;;;;;224.65;102.22;;;;;;;-0.52;78.29;95766.67;1785856;78;25770;-81
2021/12/10 02:10:36;;;;;;;238.07;103.42;;;;;;;-0.53;78.29;95767.17;1778147;79;25919;-81
2021/12/10 02:13:04;;;;;;;204.82;98.30;;;;;;;-0.53;78.28;95761.87;1778373;79;25794;-81
2021/12/10 02:15:31;;;;;;;214.63;95.92;;;;;;;-0.53;78.34;95750.44;1778243;79;27465;-82
2021/12/10 02:18:00;;;;;;;223.25;101.25;;;;;;;-0.53;78.37;95736.69;1778218;80;25716;-82
2021/12/10 02:20:35;;;;;;;224.12;101.92;;;;;;;-0.52;78.36;95746.29;1778146;79;25774;-82
2021/12/10 02:23:06;;;;;;;221.47;105.32;;;;;;;-0.54;78.33;95745.64;1777783;79;25733;-82
2021/12/10 02:25:38;;;;;;;212.12;98.95;;;;;;;-0.54;78.37;95746.97;1778406;79;25702;-82
2021/12/10 02:28:07;;;;;;;;;;;;;;;-0.51;78.38;95733.86;1781008;80;27435;-82
2021/12/10 02:30:36;;;;;;;217.35;102.38;;;;;;;-0.51;78.39;95728.06;1778281;79;25757;-82
2021/12/10 02:33:03;;;;;;;223.35;104.38;;;;;;;-0.53;78.35;95726.09;1778397;79;25770;-82
2021/12/10 02:35:30;;;;;;;218.82;99.05;;;;;;;-0.53;78.33;95730.56;1778275;80;26549;-82
2021/12/10 02:37:57;;;;;;;211.57;97.60;;;;;;;-0.55;78.33;95729.42;1778393;79;25601;-81
2021/12/10 02:40:26;;;;;;;211.30;96.90;;;;;;;-0.55;78.34;95729.92;1747534;80;28213;-82
2021/12/10 02:42:55;;;;;;;201.55;95.72;;;;;;;-0.55;78.40;95730.74;1747397;82;25743;-82
2021/12/10 02:45:25;;;;;;;204.60;94.90;;;;;;;-0.54;78.39;95722.30;1747554;80;25699;-82
2021/12/10 02:47:53;;;;;;;218.93;99.50;;;;;;;-0.54;78.35;95731.06;1775639;79;25886;-82
2021/12/10 02:50:25;;;;;;;202.62;95.95;;;;;;;-0.55;78.32;95737.38;1757305;80;25682;-82
2021/12/10 02:52:51;;;;;;;212.72;98.33;;;;;;;-0.56;78.35;95734.39;1751991;80;28658;-82
2021/12/10 02:55:20;;;;;;;208.02;95.47;;;;;;;-0.57;78.34;95735.40;1708841;82;25759;-82
2021/12/10 02:57:52;;;;;;;208.43;95.53;;;;;;;-0.58;78.38;95735.08;1708961;82;25701;-82
2021/12/10 03:00:24;;;;;;;212.67;98.40;;;;;;;-0.57;78.49;95735.40;1709139;82;25751;-82
2021/12/10 03:02:50;;;;;;;212.00;99.13;;;;;;;-0.54;78.56;95720.47;1708310;83;26152;-82
2021/12/10 03:05:17;;;;;;;204.85;97.97;;;;;;;-0.51;78.60;95718.78;1708921;82;27542;-82
2021/12/10 03:07:44;;;;;;;211.80;96.15;;;;;;;-0.48;78.61;95734.30;1708884;82;25944;-82
2021/12/10 03:10:16;;;;;;;202.05;94.83;;;;;;;-0.46;78.58;95744.21;1708647;82;25720;-82
2021/12/10 03:12:43;;;;;;;;;;;;;;;-0.44;78.57;95746.19;1711521;82;25757;-82
2021/12/10 03:15:12;;;;;;;202.70;93.10;;;;;;;-0.49;78.50;95754.38;1708983;83;25699;-82
2021/12/10 03:17:38;;;;;;;212.53;99.72;;;;;;;-0.57;78.51;95744.67;1708841;82;28444;-82
2021/12/10 03:20:09;;;;;;;212.82;98.45;;;;;;;-0.58;78.57;95756.78;1708794;83;25687;-81
2021/12/10 03:22:37;;;;;;;216.68;98.95;;;;;;;-0.59;78.69;95764.41;1708642;82;25873;-81
2021/12/10 03:25:12;;;;;;;207.75;98.17;;;;;;;-0.57;78.78;95768.53;1708892;82;26615;-81
2021/12/10 03:27:39;;;;;;;223.20;100.25;;;;;;;-0.53;78.81;95779.09;1708839;82;25684;-82
2021/12/10 03:30:09;;;;;;;210.53;98.92;;;;;;;-0.50;78.81;95786.69;1708882;82;27944;-82
2021/12/10 03:32:39;;;;;;;210.68;98.82;;;;;;;-0.54;78.70;95780.09;1708903;82;25731;-82
2021/12/10 03:35:14;;;;;;;216.40;102.10;;;;;;;-0.57;78.71;95777.80;1708598;82;25801;-82
2021/12/10 03:37:45;;;;;;;213.65;98.03;;;;;;;-0.56;78.74;95779.45;1708437;83;26571;-81
2021/12/10 03:40:15;;;;;;;224.77;104.38;;;;;;;-0.62;78.71;95774.89;1708934;82;25765;-81
2021/12/10 03:42:43;;;;;;;203.45;98.20;;;;;;;-0.61;78.82;95781.84;1708901;82;28079;-82
2021/12/10 03:45:13;;;;;;;202.18;95.95;;;;;;;-0.61;78.88;95783.17;1708835;82;25853;-82
2021/12/10 03:47:42;;;;;;;215.00;101.42;;;;;;;-0.59;78.92;95789.59;1708860;82;25276;-82
2021/12/10 03:50:12;;;;;;;213.72;98.72;;;;;;;-0.57;78.93;95788.41;1708847;82;25701;-82
2021/12/10 03:52:39;;;;;;;209.92;98.07;;;;;;;-0.57;78.92;95792.38;1706750;82;25299;-82
2021/12/10 03:55:07;;;;;;;220.07;101.22;;;;;;;-0.57;78.95;95791.05;1721205;83;27363;-82
2021/12/10 03:57:34;;;;;;;228.47;104.78;;;;;;;-0.55;78.94;95785.58;1721102;81;25787;-81
2021/12/10 04:00:00;;;;;;;209.67;101.60;;;;;;;-0.57;78.96;95783.11;1721189;82;25795;-82
2021/12/10 04:02:27;;;;;;;221.22;101.47;;;;;;;-0.55;79.01;95778.45;1721231;83;26688;-82
2021/12/10 04:04:54;;;;;;;207.32;96.12;;;;;;;-0.53;79.04;95773.80;1721216;81;25554;-82
2021/12/10 04:07:24;;;;;;;216.65;98.58;;;;;;;-0.52;79.03;95777.27;1721108;81;28121;-82
2021/12/10 04:09:52;;;;;;;218.93;99.72;;;;;;;-0.51;79.02;95774.94;1720896;82;25743;-82
2021/12/10 04:12:21;;;;;;;215.15;100.80;;;;;;;-0.49;79.03;95772.94;1721163;82;25681;-82
2021/12/10 04:14:50;;;;;;;208.50;97.37;;;;;;;-0.50;79.00;95776.09;1721154;81;25719;-82
2021/12/10 04:17:19;;;;;;;208.13;97.05;;;;;;;-0.52;79.04;95773.30;1678885;84;25276;-82
2021/12/10 04:19:48;;;;;;;213.30;99.10;;;;;;;-0.52;79.07;95773.30;1708853;82;28268;-83
2021/12/10 04:22:15;;;;;;;204.05;97.42;;;;;;;-0.48;79.11;95774.55;1708738;82;25783;-82
2021/12/10 04:24:42;;;;;;;207.20;98.27;;;;;;;-0.45;79.13;95775.02;1708892;82;25931;-82
2021/12/10 04:27:13;;;;;;;204.68;98.55;;;;;;;-0.43;79.07;95778.31;1708880;82;26534;-82
2021/12/10 04:29:40;;;;;;;205.85;94.70;;;;;;;-0.43;79.03;95777.49;1708892;83;25801;-82
2021/12/10 04:32:09;;;;;;;207.72;96.60;;;;;;;-0.43;79.06;95777.49;1708616;82;26977;-82
2021/12/10 04:34:37;;;;;;;210.35;95.47;;;;;;;-0.41;79.13;95792.22;1708838;83;25896;-82
2021/12/10 04:37:07;;;;;;;206.93;97.88;;;;;;;-0.38;79.11;95785.73;1708858;82;26389;-82
2021/12/10 04:39:37;;;;;;;207.83;94.90;;;;;;;-0.41;79.05;95782.94;1708868;82;25698;-82
2021/12/10 04:42:05;;;;;;;207.03;97.12;;;;;;;-0.41;79.12;95785.59;1720974;81;25885;-82
2021/12/10 04:44:31;;;;;;;206.28;96.25;;;;;;;-0.40;79.19;95791.22;1721165;83;28191;-82
2021/12/10 04:46:58;;;;;;;198.75;98.20;;;;;;;-0.38;79.25;95795.84;1721039;81;25842;-82
2021/12/10 04:49:24;;;;;;;207.00;95.62;;;;;;;-0.34;79.27;95793.63;1721248;83;25813;-82
2021/12/10 04:51:55;;;;;;;193.87;93.27;;;;;;;-0.29;79.25;95794.41;1721324;81;26344;-82
2021/12/10 04:54:24;;;;;;;206.95;96.70;;;;;;;-0.32;79.17;95796.09;1721369;82;25731;-82
2021/12/10 04:56:54;;;;;;;194.60;96.35;;;;;;;-0.33;79.16;95797.09;1721371;82;27412;-82
2021/12/10 04:59:22;;;;;;;207.52;97.30;;;;;;;-0.37;79.13;95808.59;1721262;82;25814;-82
2021/12/10 05:01:54;;;;;;;213.62;99.30;;;;;;;-0.42;79.17;95803.83;1721346;83;26560;-82
2021/12/10 05:04:20;;;;;;;210.48;99.55;;;;;;;-0.40;79.27;95800.49;1721324;81;26519;-82
2021/12/10 05:06:46;;;;;;;214.32;101.27;;;;;;;-0.38;79.30;95795.84;1721421;83;25716;-82
2021/12/10 05:09:14;;;;;;;210.53;98.67;;;;;;;-0.36;79.29;95787.17;1723857;81;27425;-82
2021/12/10 05:11:40;;;;;;;204.38;97.02;;;;;;;-0.34;79.32;95794.13;1728996;81;26005;-82
2021/12/10 05:14:09;;;;;;;204.18;98.35;;;;;;;-0.34;79.29;95792.30;1729159;81;25756;-82
2021/12/10 05:16:42;;;;;;;211.90;101.00;;;;;;;-0.30;79.34;95795.41;1729042;81;25768;-82
2021/12/10 05:19:09;;;;;;;203.92;93.72;;;;;;;-0.27;79.29;95795.05;1729125;81;25751;-82
2021/12/10 05:21:38;;;;;;;209.43;97.60;;;;;;;-0.28;79.28;95790.25;1729125;81;27416;-81
2021/12/10 05:24:07;;;;;;;195.87;93.97;;;;;;;-0.25;79.35;95787.74;1729029;81;25763;-82
2021/12/10 05:26:36;;;;;;;209.85;96.05;;;;;;;-0.25;79.27;95783.27;1729137;81;25648;-82
2021/12/10 05:29:08;;;;;;;211.32;100.20;;;;;;;-0.25;79.31;95778.46;1728789;82;26517;-82
2021/12/10 05:31:39;;;;;;;203.10;96.87;;;;;;;-0.25;79.29;95776.64;1729144;81;25645;-82
2021/12/10 05:34:07;;;;;;;215.05;101.97;;;;;;;-0.25;79.26;95780.61;1729159;81;27428;-82
2021/12/10 05:36:33;;;;;;;196.87;96.42;;;;;;;-0.24;79.28;95785.41;1728700;81;25786;-82
2021/12/10 05:39:00;;;;;;;201.42;97.80;;;;;;;-0.23;79.30;95784.38;1729087;81;25748;-82
2021/12/10 05:41:27;;;;;;;205.55;99.65;;;;;;;-0.22;79.28;95788.67;1729110;81;26483;-82
2021/12/10 05:43:54;;;;;;;216.02;99.90;;;;;;;-0.24;79.29;95792.84;1729103;82;25672;-82
2021/12/10 05:46:21;;;;;;;203.60;97.67;;;;;;;-0.23;79.25;95796.31;1729091;82;27342;-81
2021/12/10 05:48:47;;;;;;;207.10;98.37;;;;;;;-0.22;79.31;95799.28;1728912;81;25277;-81
2021/12/10 05:51:14;;;;;;;209.95;97.78;;;;;;;-0.22;79.29;95805.41;1729206;81;25676;-82
2021/12/10 05:53:42;;;;;;;210.75;98.03;;;;;;;-0.21;79.29;95806.23;1729079;81;25723;-82
2021/12/10 05:56:09;;;;;;;208.53;98.35;;;;;;;-0.21;79.29;95807.56;1729081;81;25696;-82
2021/12/10 05:58:37;;;;;;;205.43;99.52;;;;;;;-0.27;79.32;95804.33;1728996;81;28369;-82
2021/12/10 06:01:14;;;;;;;213.03;100.18;;;;;;;-0.17;79.31;95816.80;1728960;81;25688;-81
2021/12/10 06:03:51;;;;;;;220.97;102.32;;;;;;;-0.16;79.26;95819.78;1729064;81;25790;-81
2021/12/10 06:06:11;;;;;;;223.65;106.70;;;;;;;-0.15;79.29;95817.45;1727797;81;26685;-81
2021/12/10 06:08:37;;;;;;;225.93;105.90;;;;;;;-0.15;79.26;95824.08;1729161;81;26251;-82
2021/12/10 06:11:06;;;;;;;231.17;109.48;;;;;;;-0.16;79.24;95819.28;1726491;81;27397;-82
2021/12/10 06:13:33;;;;;;;225.07;108.27;;;;;;;-0.16;79.26;95817.13;1728738;81;25891;-82
2021/12/10 06:16:00;;;;;;;231.78;110.72;;;;;;;-0.15;79.29;95825.41;1755248;80;25741;-81
2021/12/10 06:18:26;;;;;;;213.28;103.60;;;;;;;-0.13;79.29;95825.55;1755149;80;26645;-81
2021/12/10 06:20:54;;;;;;;216.20;102.22;;;;;;;-0.13;79.23;95817.59;1755255;81;25721;-82
2021/12/10 06:23:22;;;;;;;207.70;103.87;;;;;;;-0.14;79.19;95825.73;1755292;80;27370;-82
2021/12/10 06:25:49;;;;;;;216.97;105.00;;;;;;;-0.16;79.20;95821.11;1755094;80;25749;-81
2021/12/10 06:28:17;;;;;;;216.93;102.53;;;;;;;-0.17;79.24;95826.91;1779130;79;25649;-82
2021/12/10 06:30:47;;;;;;;205.90;101.07;;;;;;;-0.19;79.25;95829.42;1786368;78;25842;-81
2021/12/10 06:33:19;;;;;;;216.10;103.58;;;;;;;-0.20;79.23;95827.77;1786383;79;25703;-81
2021/12/10 06:35:49;;;;;;;210.13;105.87;;;;;;;-0.22;79.26;95826.63;1786201;79;28381;-82
2021/12/10 06:38:17;;;;;;;214.80;104.95;;;;;;;-0.20;79.30;95823.80;1786283;78;25694;-81
2021/12/10 06:40:45;;;;;;;233.57;106.60;;;;;;;-0.18;79.38;95821.79;1786381;80;26268;-81
2021/12/10 06:43:12;;;;;;;213.75;104.60;;;;;;;-0.16;79.40;95827.23;1786402;78;25749;-82
2021/12/10 06:45:40;;;;;;;229.70;109.12;;;;;;;-0.13;79.40;95819.42;1786352;78;25737;-81
2021/12/10 06:48:10;;;;;;;222.10;107.67;;;;;;;-0.12;79.38;95822.40;1786386;78;27455;-82
2021/12/10 06:50:42;;;;;;;232.05;113.52;;;;;;;-0.12;79.36;95825.05;1786193;78;26092;-82
2021/12/10 06:53:09;;;;;;;238.20;120.22;;;;;;;-0.13;79.36;95827.38;1786501;79;32361;-82
2021/12/10 06:55:37;;;;;;;238.05;116.53;;;;;;;-0.14;79.37;95827.06;1786349;79;25666;-82
2021/12/10 06:58:06;;;;;;;238.18;118.00;;;;;;;-0.12;79.40;95825.05;1786277;78;25682;-82
2021/12/10 07:00:44;;;;;;;233.00;116.85;;;;;;;-0.10;79.41;95824.34;1786309;78;28109;-82
2021/12/10 07:03:15;;;;;;;265.35;124.97;;;;;;;-0.08;79.41;95823.66;1785966;79;25849;-82
2021/12/10 07:05:42;;;;;;;251.50;124.90;;;;;;;-0.07;79.39;95814.70;1786583;78;25813;-82
2021/12/10 07:08:09;;;;;;;240.15;117.15;;;;;;;-0.05;79.42;95816.66;1786277;78;26583;-82
2021/12/10 07:10:37;;;;;;;242.68;118.62;;;;;;;-0.01;79.45;95824.58;1784534;78;25771;-82
2021/12/10 07:13:09;;;;;;;240.47;115.03;;;;;;;-0.02;79.43;95807.84;1778183;79;27405;-82
2021/12/10 07:15:40;;;;;;;247.17;112.30;;;;;;;0.06;79.45;95820.17;1778289;79;25758;-82
2021/12/10 07:18:09;;;;;;;259.30;121.05;;;;;;;0.08;79.43;95820.81;1778178;80;25737;-82
2021/12/10 07:20:36;;;;;;;251.92;115.32;;;;;;;0.11;79.38;95824.44;1778405;79;26579;-82
2021/12/10 07:23:03;;;;;;;249.73;117.57;;;;;;;0.13;79.36;95825.55;1778313;79;25816;-82
2021/12/10 07:25:30;;;;;;;212.65;106.12;;;;;;;0.15;79.36;95829.67;1778449;80;27352;-82
2021/12/10 07:27:57;;;;;;;200.43;101.05;;;;;;;0.15;79.32;95832.33;1777850;79;25965;-82
2021/12/10 07:30:26;;;;;;;204.87;104.00;;;;;;;0.13;79.32;95833.00;1778443;79;26324;-81
2021/12/10 07:32:54;;;;;;;214.72;104.97;;;;;;;0.16;79.36;95843.26;1778251;79;25775;-82
2021/12/10 07:35:22;;;;;;;195.25;101.42;;;;;;;0.16;79.42;95837.95;1778127;79;25821;-82
2021/12/10 07:37:50;;;;;;;172.50;93.05;;;;;;;0.18;79.44;95835.94;1778238;79;27465;-82
2021/12/10 07:40:24;;;;;;;188.27;96.57;;;;;;;0.22;79.47;95826.61;1778209;79;25750;-82
2021/12/10 07:42:51;;;;;;;189.82;97.53;;;;;;;0.24;79.42;95824.56;1778265;79;25702;-82
2021/12/10 07:45:20;;;;;;;181.15;96.80;;;;;;;0.29;79.35;95820.87;1778283;80;26342;-82
2021/12/10 07:47:51;;;;;;;192.70;97.10;;;;;;;0.34;79.35;95827.78;1778310;79;25662;-82
2021/12/10 07:50:23;;;;;;;225.87;113.35;;;;;;;0.40;79.38;95829.35;1778001;79;27416;-82
2021/12/10 07:52:56;;;;;;;296.77;138.28;;;;;;;0.46;79.38;95833.93;1778182;80;26395;-81
2021/12/10 07:55:31;;;;;;;282.30;139.15;;;;;;;0.52;79.35;95826.53;1778245;79;25812;-82
2021/12/10 07:58:00;;;;;;;274.35;128.72;;;;;;;0.57;79.25;95821.49;1777905;79;26524;-82
2021/12/10 08:00:31;;;;;;;257.92;127.97;;;;;;;0.56;79.10;95825.98;1778240;79;25700;-81
2021/12/10 08:02:57;;;;;;;250.00;124.30;;;;;;;0.58;79.11;95827.95;1778129;79;28058;-82
2021/12/10 08:05:25;;;;;;;256.50;125.70;;;;;;;0.56;79.01;95825.16;1778159;79;25800;-82
2021/12/10 08:07:54;;;;;;;234.07;119.20;;;;;;;0.58;79.05;95826.63;1778256;79;25697;-82
2021/12/10 08:10:22;;;;;;;246.05;126.05;;;;;;;0.55;79.03;95824.83;1778329;80;25907;-82
2021/12/10 08:12:49;;;;;;;244.30;125.42;;;;;;;0.53;78.99;95831.66;1777944;79;25727;-82
2021/12/10 08:15:16;;;;;;;242.97;124.12;;;;;;;0.54;79.06;95824.52;1778261;79;27366;-82
2021/12/10 08:17:45;;;;;;;242.95;122.20;;;;;;;0.58;79.10;95829.27;1777876;79;26598;-82
2021/12/10 08:20:19;;;;;;;230.80;120.15;;;;;;;0.62;79.09;95829.70;1778255;79;26100;-82
2021/12/10 08:22:47;;;;;;;252.97;121.22;;;;;;;0.67;79.12;95827.31;1778294;79;26490;-82
2021/12/10 08:25:14;;;;;;;232.12;118.50;;;;;;;0.73;79.14;95836.67;1778451;79;25739;-82
2021/12/10 08:27:41;;;;;;;247.35;124.33;;;;;;;0.77;79.16;95831.81;1778431;79;27356;-82
2021/12/10 08:30:12;;;;;;;234.00;119.70;;;;;;;0.81;79.14;95841.05;1778428;79;25655;-81
2021/12/10 08:32:41;;;;;;;216.65;111.97;;;;;;;0.83;79.08;95841.70;1778520;79;25725;-81
2021/12/10 08:35:12;;;;;;;224.52;112.28;;;;;;;0.84;78.99;95843.34;1778472;79;25743;-81
2021/12/10 08:37:40;;;;;;;223.60;116.33;;;;;;;0.88;78.94;95850.41;1778712;79;25798;-82
2021/12/10 08:40:10;;;;;;;219.93;112.88;;;;;;;0.92;78.97;95853.83;1778434;79;27573;-81
2021/12/10 08:42:37;;;;;;;201.05;102.40;;;;;;;0.95;78.91;95841.51;1778098;79;25631;-82
2021/12/10 08:45:06;;;;;;;198.05;101.10;;;;;;;0.98;78.88;95842.94;1778388;79;25797;-82
2021/12/10 08:47:33;;;;;;;186.75;100.75;;;;;;;1.01;78.87;95846.05;1778450;79;25777;-82
2021/12/10 08:50:02;;;;;;;196.05;105.85;;;;;;;1.05;78.86;95842.01;1778424;79;25743;-82
2021/12/10 08:52:28;;;;;;;211.15;109.30;;;;;;;1.12;78.88;95841.23;1778430;79;28158;-82
2021/12/10 08:54:55;;;;;;;220.20;111.22;;;;;;;1.17;78.86;95846.81;1778252;79;26079;-82
2021/12/10 08:57:23;;;;;;;213.22;108.55;;;;;;;1.22;78.83;95843.05;1778353;79;25197;-82
2021/12/10 08:59:50;;;;;;;215.30;111.80;;;;;;;1.27;78.84;95840.66;1778447;80;26339;-82
2021/12/10 09:02:17;;;;;;;223.72;113.17;;;;;;;1.32;78.79;95841.74;1778428;79;25674;-82
2021/12/10 09:04:46;;;;;;;183.82;96.55;;;;;;;1.35;78.77;95844.50;1778417;79;27355;-82
2021/12/10 09:07:17;;;;;;;169.28;87.62;;;;;;;1.39;78.80;95840.45;1778314;80;25836;-82
2021/12/10 09:09:46;;;;;;;165.12;85.32;;;;;;;1.42;78.75;95837.42;1778385;79;25745;-83
2021/12/10 09:12:18;;;;;;;158.40;87.65;;;;;;;1.45;78.72;95829.85;1779756;79;25854;-83
2021/12/10 09:14:49;;;;;;;173.75;91.95;;;;;;;1.50;78.75;95829.29;1781267;79;26087;-83
2021/12/10 09:17:21;;;;;;;181.07;95.95;;;;;;;1.52;78.75;95821.12;1780940;79;27434;-82
2021/12/10 09:19:50;;;;;;;177.97;96.42;;;;;;;1.52;78.74;95821.94;1781073;79;26194;-82
2021/12/10 09:22:18;;;;;;;165.55;90.12;;;;;;;1.55;78.74;95821.56;1781098;79;25711;-82
2021/12/10 09:24:46;;;;;;;166.75;89.37;;;;;;;1.56;78.68;95812.58;1781105;80;25771;-82
2021/12/10 09:27:14;;;;;;;163.62;89.80;;;;;;;1.58;78.73;95805.20;1781224;79;25807;-82
2021/12/10 09:29:45;;;;;;;161.92;87.22;;;;;;;1.63;78.77;95808.61;1781147;79;27390;-82
2021/12/10 09:32:16;;;;;;;152.60;81.53;;;;;;;1.65;78.77;95802.09;1781140;79;25731;-82
2021/12/10 09:34:43;;;;;;;154.42;82.62;;;;;;;1.68;78.82;95805.70;1781174;79;25854;-83
2021/12/10 09:37:11;;;;;;;153.30;82.72;;;;;;;1.70;78.83;95806.30;1781186;79;26495;-83
2021/12/10 09:39:39;;;;;;;141.40;74.10;;;;;;;1.75;78.89;95803.89;1781120;79;25775;-82
2021/12/10 09:42:08;;;;;;;134.55;72.58;;;;;;;1.83;78.89;95800.23;1780877;79;28267;-81
2021/12/10 09:44:36;;;;;;;124.12;68.95;;;;;;;1.90;78.80;95804.28;1780700;79;25877;-82
2021/12/10 09:47:07;;;;;;;135.68;72.95;;;;;;;1.97;78.76;95799.80;1781049;79;25706;-83
2021/12/10 09:49:34;;;;;;;130.35;74.22;;;;;;;2.02;78.67;95793.39;1781142;79;25668;-82
2021/12/10 09:52:05;;;;;;;142.60;76.45;;;;;;;2.06;78.61;95795.45;1781067;79;25671;-82
2021/12/10 09:54:34;;;;;;;136.13;75.47;;;;;;;2.11;78.60;95791.69;1781359;79;28064;-83
2021/12/10 09:57:14;;;;;;;144.60;80.20;;;;;;;2.17;78.60;95788.77;1780994;79;25722;-81
2021/12/10 09:59:45;;;;;;;132.97;75.72;;;;;;;2.23;78.60;95784.47;1781184;79;25693;-80
2021/12/10 10:02:14;;;;;;;145.38;79.22;;;;;;;2.29;78.58;95773.86;1781155;79;25773;-80
2021/12/10 10:04:46;;;;;;;144.37;77.92;;;;;;;2.37;78.58;95786.98;1781267;79;25754;-80
2021/12/10 10:07:13;;;;;;;162.53;89.75;;;;;;;2.47;78.49;95789.27;1780546;80;27436;-81
2021/12/10 10:09:46;;;;;;;223.25;117.03;;;;;;;2.54;78.36;95788.77;1780992;79;26074;-81
2021/12/10 10:12:26;;;;;;;228.32;117.60;;;;;;;2.60;78.14;95796.48;1779745;79;25822;-80
2021/12/10 10:14:53;;;;;;;242.18;124.92;;;;;;;2.64;78.05;95800.39;1778037;79;26573;-80
2021/12/10 10:17:22;;;;;;;244.00;127.75;;;;;;;2.67;77.97;95794.64;1778336;79;25856;-81
2021/12/10 10:19:51;;;;;;;230.67;124.82;;;;;;;2.73;77.83;95788.52;1778310;79;28218;-82
2021/12/10 10:22:23;;;;;;;201.35;108.40;;;;;;;2.79;77.78;95779.70;1778281;79;25822;-82
2021/12/10 10:24:52;;;;;;;206.47;111.08;;;;;;;2.85;77.68;95769.07;1778503;79;25653;-81
2021/12/10 10:27:27;;;;;;;197.13;109.22;;;;;;;2.91;77.63;95772.75;1778277;79;25735;-82
2021/12/10 10:30:01;;;;;;;189.10;104.38;;;;;;;2.96;77.56;95778.31;1778362;80;25719;-81
2021/12/10 10:32:32;;;;;;;189.43;102.12;;;;;;;3.01;77.44;95778.53;1769748;79;28126;-82
2021/12/10 10:35:07;;;;;;;184.37;97.95;;;;;;;3.04;77.31;95778.09;1777969;80;25647;-82
2021/12/10 10:37:35;;;;;;;171.47;94.25;;;;;;;3.09;77.28;95780.16;1778141;79;26248;-81
2021/12/10 10:40:05;;;;;;;163.85;91.08;;;;;;;3.12;77.02;95783.25;1778305;79;25751;-81
2021/12/10 10:42:33;;;;;;;169.82;92.85;;;;;;;3.03;76.71;95787.12;1778028;78;25289;-82
2021/12/10 10:45:05;;;;;;;166.53;90.00;;;;;;;3.02;76.80;95784.14;1778386;80;28184;-81
2021/12/10 10:47:31;;;;;;;165.68;89.15;;;;;;;3.10;76.87;95783.14;1778403;79;25763;-82
2021/12/10 10:50:09;;;;;;;176.35;91.92;;;;;;;3.28;76.98;95776.67;1778426;79;25707;-81
2021/12/10 10:52:36;;;;;;;183.50;92.08;;;;;;;3.53;76.98;95782.20;1777140;80;25687;-81
2021/12/10 10:55:14;;;;;;;199.40;96.32;;;;;;;3.83;76.92;95775.39;1778508;80;25765;-81
2021/12/10 10:57:52;;;;;;;162.72;80.22;;;;;;;4.16;76.62;95778.47;1778419;79;27465;-82
2021/12/10 11:00:58;;;;;;;154.53;75.83;;;;;;;4.42;76.13;95774.88;1777627;79;26337;-82
2021/12/10 11:03:24;;;;;;;116.50;61.65;;;;;;;4.56;75.45;95771.12;1777473;79;25746;-81
2021/12/10 11:05:57;;;;;;;96.67;54.00;;;;;;;4.79;74.96;95759.88;1778338;79;25755;-82
2021/12/10 11:08:38;;;;;;;95.77;55.55;;;;;;;4.97;74.72;95763.97;1778354;79;25743;-81
2021/12/10 11:11:16;;;;;;;101.53;54.15;;;;;;;5.22;74.46;95768.82;1778332;79;28164;-81
2021/12/10 11:13:51;;;;;;;106.25;56.35;;;;;;;5.35;74.21;95766.56;1777903;79;25913;-81
2021/12/10 11:16:21;;;;;;;94.92;50.60;;;;;;;5.54;73.80;95756.22;1778353;79;25796;-80
2021/12/10 11:19:05;;;;;;;97.30;55.33;;;;;;;5.71;73.66;95756.46;1778414;79;25717;-81
2021/12/10 11:21:55;;;;;;;78.95;46.02;;;;;;;5.76;73.03;95756.11;1778282;79;25691;-81
2021/12/10 11:24:27;;;;;;;59.65;35.73;;;;;;;5.60;72.42;95758.52;1778354;79;27336;-81
2021/12/10 11:27:12;;;;;;;61.70;34.67;;;;;;;5.48;72.36;95761.10;1777854;79;25830;-81
2021/12/10 11:29:48;;;;;;;52.20;31.95;;;;;;;5.47;72.44;95759.98;1776949;79;25652;-81